Time;durP1;ratioP1;P1;durP2;ratioP2;P2;SDS_P1;SDS_P2;PMS_P1;PMS_P2;Temp;Humidity;BMP_temperature;BMP_pressure;BME280_temperature;BME280_humidity;BME280_pressure;Samples;Min_cycle;Max_cycle;Signal;HPM_P1;HPM_P2
2022/05/25 00:00:06;;;;;;;0.90;0.63;;;21.20;62.20;;;;;;5046080;28;20187;-92
2022/05/25 00:03:25;;;;;;;1.13;0.60;;;21.10;62.10;;;;;;5026608;28;20307;-92
2022/05/25 00:06:23;;;;;;;0.57;0.57;;;21.10;62.20;;;;;;5066151;28;20185;-93
2022/05/25 00:08:48;;;;;;;0.90;0.60;;;21.10;62.20;;;;;;5039412;28;20569;-92
2022/05/25 00:11:14;;;;;;;0.60;0.60;;;21.10;62.20;;;;;;5038656;28;20393;-92
2022/05/25 00:13:42;;;;;;;0.77;0.70;;;21.10;62.20;;;;;;5046902;28;20172;-92
2022/05/25 00:16:08;;;;;;;1.00;0.60;;;21.10;62.30;;;;;;5035949;28;20449;-93
2022/05/25 00:18:34;;;;;;;0.90;0.70;;;21.10;62.30;;;;;;5047202;28;20487;-92
2022/05/25 00:21:05;;;;;;;1.03;0.63;;;21.00;62.10;;;;;;5285490;22;20336;-92
2022/05/25 00:23:31;;;;;;;0.50;0.50;;;21.00;62.20;;;;;;5045740;28;20219;-92
2022/05/25 00:26:11;;;;;;;0.60;0.60;;;21.00;62.30;;;;;;5051461;28;20183;-92
2022/05/25 00:28:36;;;;;;;1.00;0.60;;;21.00;62.30;;;;;;5029214;28;20534;-92
2022/05/25 00:31:02;;;;;;;0.77;0.67;;;21.00;62.30;;;;;;5050087;28;20212;-92
2022/05/25 00:33:29;;;;;;;0.77;0.53;;;21.00;62.30;;;;;;5058712;28;20210;-91
2022/05/25 00:35:55;;;;;;;0.50;0.50;;;21.00;62.40;;;;;;5052821;28;20275;-92
2022/05/25 00:38:20;;;;;;;1.00;0.80;;;20.90;62.30;;;;;;5050106;28;20548;-91
2022/05/25 00:40:46;;;;;;;0.70;0.70;;;20.90;63.00;;;;;;5050235;28;20203;-91
2022/05/25 00:43:13;;;;;;;0.70;0.70;;;20.90;62.40;;;;;;5045852;28;20291;-91
2022/05/25 00:45:53;;;;;;;1.30;0.70;;;20.90;62.40;;;;;;5052530;28;20239;-92
2022/05/25 00:48:36;;;;;;;0.60;0.60;;;20.90;62.40;;;;;;5057285;28;20188;-91
2022/05/25 00:51:15;;;;;;;0.60;0.60;;;20.90;62.50;;;;;;5056440;28;20631;-91
2022/05/25 00:53:52;;;;;;;0.60;0.60;;;20.90;62.50;;;;;;5057295;28;20184;-92
2022/05/25 00:56:21;;;;;;;0.60;0.60;;;20.90;62.40;;;;;;5051999;28;20573;-92
2022/05/25 00:59:02;;;;;;;0.70;0.63;;;20.90;62.50;;;;;;5060725;28;20175;-92
2022/05/25 01:01:28;;;;;;;1.30;0.60;;;20.80;62.40;;;;;;5065160;28;20176;-93
2022/05/25 01:03:54;;;;;;;0.80;0.80;;;20.80;62.50;;;;;;5072131;28;20211;-93
2022/05/25 01:06:38;;;;;;;0.60;0.60;;;20.80;62.50;;;;;;5073065;28;20182;-93
2022/05/25 01:09:21;;;;;;;0.60;0.60;;;20.80;62.50;;;;;;5072853;28;20176;-92
2022/05/25 01:15:02;;;;;;;0.40;0.40;;;20.80;62.50;;;;;;5086338;28;20208;-93
2022/05/25 01:17:33;;;;;;;0.60;0.60;;;20.80;62.50;;;;;;5067468;28;20174;-93
2022/05/25 01:20:28;;;;;;;0.60;0.60;;;20.70;62.40;;;;;;5073902;28;20201;-93
2022/05/25 01:22:57;;;;;;;0.60;0.60;;;20.70;62.40;;;;;;5065272;28;20221;-95
2022/05/25 01:26:00;;;;;;;0.87;0.60;;;20.70;62.40;;;;;;5066076;28;20175;-94
2022/05/25 01:28:50;;;;;;;0.50;0.50;;;20.70;62.40;;;;;;5070917;28;20191;-95
2022/05/25 01:31:28;;;;;;;0.50;0.50;;;20.70;62.40;;;;;;5064523;28;20244;-95
2022/05/25 01:34:06;;;;;;;0.60;0.60;;;20.70;62.40;;;;;;5071299;28;20176;-95
2022/05/25 01:36:54;;;;;;;0.57;0.57;;;20.70;62.40;;;;;;5033406;28;20546;-94
2022/05/25 01:39:53;;;;;;;0.80;0.80;;;20.70;62.40;;;;;;5027408;28;20203;-94
2022/05/25 01:42:30;;;;;;;0.60;0.60;;;20.70;62.40;;;;;;5038415;28;20176;-94
2022/05/25 01:45:01;;;;;;;0.60;0.60;;;20.60;62.40;;;;;;5038178;28;20389;-94
2022/05/25 01:47:31;;;;;;;0.50;0.50;;;20.60;62.40;;;;;;5017161;28;20189;-94
2022/05/25 01:50:27;;;;;;;0.60;0.60;;;20.60;62.40;;;;;;5027058;28;20229;-94
2022/05/25 01:53:07;;;;;;;0.73;0.73;;;20.60;62.50;;;;;;5020124;28;20196;-94
2022/05/25 01:55:46;;;;;;;1.60;0.60;;;20.60;62.40;;;;;;5029228;28;20186;-93
2022/05/25 01:58:16;;;;;;;0.50;0.50;;;20.60;62.40;;;;;;5019294;28;20584;-94
2022/05/25 02:00:50;;;;;;;0.80;0.60;;;20.60;62.40;;;;;;5023141;28;20180;-94
2022/05/25 02:06:27;;;;;;;0.63;0.63;;;20.50;62.40;;;;;;5047821;28;20176;-94
2022/05/25 02:09:40;;;;;;;0.77;0.60;;;20.50;62.40;;;;;;4981736;28;20177;-94
2022/05/25 02:12:45;;;;;;;0.73;0.73;;;20.50;62.40;;;;;;4981826;28;20212;-95
2022/05/25 02:15:20;;;;;;;0.63;0.63;;;20.50;62.40;;;;;;4984763;28;20199;-94
2022/05/25 02:17:52;;;;;;;0.60;0.60;;;20.50;62.40;;;;;;5020088;28;20275;-94
2022/05/25 02:20:20;;;;;;;0.50;0.50;;;20.50;62.40;;;;;;5022751;28;20592;-94
2022/05/25 02:22:50;;;;;;;0.53;0.53;;;20.50;62.30;;;;;;5030041;28;20313;-95
2022/05/25 02:25:21;;;;;;;0.60;0.60;;;20.40;62.30;;;;;;5029949;28;20524;-94
2022/05/25 02:27:58;;;;;;;0.57;0.57;;;20.40;62.30;;;;;;5021431;28;20238;-94
2022/05/25 02:30:24;;;;;;;0.73;0.70;;;20.40;62.30;;;;;;5017315;28;20175;-94
2022/05/25 02:32:56;;;;;;;0.60;0.60;;;20.40;62.30;;;;;;5005263;28;20360;-94
2022/05/25 02:35:23;;;;;;;0.70;0.70;;;20.40;62.30;;;;;;5027183;28;20168;-94
2022/05/25 02:37:51;;;;;;;0.50;0.50;;;20.40;62.30;;;;;;5014852;28;20325;-94
2022/05/25 02:40:17;;;;;;;0.60;0.60;;;20.40;62.30;;;;;;5015933;28;20171;-95
2022/05/25 02:42:47;;;;;;;0.63;0.50;;;20.40;62.30;;;;;;5035499;28;20605;-94
2022/05/25 02:45:13;;;;;;;1.23;0.53;;;20.40;62.30;;;;;;5017765;28;20494;-93
2022/05/25 02:47:40;;;;;;;0.60;0.60;;;20.30;62.20;;;;;;5037593;28;20177;-93
2022/05/25 02:50:06;;;;;;;0.77;0.73;;;20.30;62.20;;;;;;5012641;28;20220;-93
2022/05/25 02:52:36;;;;;;;0.57;0.50;;;20.30;62.20;;;;;;5022831;28;20873;-93
2022/05/25 02:55:06;;;;;;;0.80;0.73;;;20.30;62.30;;;;;;5017496;28;20528;-93
2022/05/25 02:57:33;;;;;;;0.60;0.60;;;20.30;62.20;;;;;;5012565;28;20429;-93
2022/05/25 02:59:59;;;;;;;1.43;0.60;;;20.30;62.30;;;;;;5032853;28;20513;-93
2022/05/25 03:02:25;;;;;;;0.60;0.60;;;20.30;62.20;;;;;;5011576;28;20206;-93
2022/05/25 03:04:51;;;;;;;0.50;0.50;;;20.30;62.20;;;;;;5005614;28;20168;-93
2022/05/25 03:07:16;;;;;;;0.67;0.67;;;20.30;62.20;;;;;;4983993;28;20420;-94
2022/05/25 03:09:42;;;;;;;0.50;0.50;;;20.20;62.20;;;;;;4999312;28;20216;-93
2022/05/25 03:12:11;;;;;;;0.97;0.67;;;20.20;62.20;;;;;;5018439;28;20167;-93
2022/05/25 03:14:37;;;;;;;0.93;0.53;;;20.20;62.10;;;;;;5014153;28;20176;-94
2022/05/25 03:17:14;;;;;;;0.57;0.57;;;20.20;62.10;;;;;;5045313;28;20182;-95
2022/05/25 03:19:52;;;;;;;0.60;0.60;;;20.20;62.20;;;;;;5049166;28;20542;-94
2022/05/25 03:22:19;;;;;;;0.60;0.60;;;20.20;62.80;;;;;;5037146;28;20264;-94
2022/05/25 03:24:45;;;;;;;0.60;0.60;;;20.20;62.20;;;;;;5026550;28;20175;-94
2022/05/25 03:27:16;;;;;;;0.57;0.57;;;20.20;62.10;;;;;;5033495;28;20224;-94
2022/05/25 03:29:44;;;;;;;1.10;0.60;;;20.20;62.20;;;;;;5040117;28;20241;-95
2022/05/25 03:32:10;;;;;;;0.80;0.80;;;20.10;62.10;;;;;;5027165;28;20195;-95
2022/05/25 03:34:36;;;;;;;0.57;0.57;;;20.10;62.10;;;;;;5034810;28;20188;-93
2022/05/25 03:37:06;;;;;;;0.60;0.60;;;20.10;62.10;;;;;;5029575;28;20477;-93
2022/05/25 03:39:32;;;;;;;0.93;0.60;;;20.10;62.10;;;;;;5035696;28;20371;-93
2022/05/25 03:42:02;;;;;;;0.80;0.67;;;20.10;62.10;;;;;;5045058;28;20181;-92
2022/05/25 03:44:28;;;;;;;0.70;0.70;;;20.10;62.10;;;;;;5032177;28;20278;-93
2022/05/25 03:46:54;;;;;;;0.80;0.70;;;20.10;62.10;;;;;;5034235;28;20188;-92
2022/05/25 03:49:27;;;;;;;0.40;0.40;;;20.10;62.00;;;;;;5021261;28;20175;-92
2022/05/25 03:52:00;;;;;;;0.60;0.60;;;20.10;62.00;;;;;;5038174;28;20188;-93
2022/05/25 03:54:26;;;;;;;0.60;0.60;;;20.10;62.00;;;;;;5027933;28;20173;-92
2022/05/25 03:57:01;;;;;;;0.70;0.70;;;20.00;61.90;;;;;;5025204;28;20454;-92
2022/05/25 03:59:27;;;;;;;0.77;0.77;;;20.10;62.00;;;;;;5024249;28;20343;-93
2022/05/25 04:01:57;;;;;;;0.70;0.70;;;20.10;61.90;;;;;;5032629;28;20229;-92
2022/05/25 04:04:22;;;;;;;0.70;0.70;;;20.10;61.90;;;;;;5023659;28;20222;-92
2022/05/25 04:06:48;;;;;;;0.50;0.50;;;20.00;61.80;;;;;;5032696;28;20179;-92
2022/05/25 04:09:14;;;;;;;0.60;0.60;;;20.00;61.80;;;;;;5028296;28;20180;-93
2022/05/25 04:11:54;;;;;;;0.70;0.70;;;20.00;61.70;;;;;;5025177;28;20243;-93
2022/05/25 04:14:19;;;;;;;0.70;0.70;;;20.00;61.70;;;;;;5018899;28;20248;-92
2022/05/25 04:16:46;;;;;;;0.60;0.60;;;20.00;61.70;;;;;;5025518;28;20175;-93
2022/05/25 04:19:12;;;;;;;0.60;0.60;;;20.00;61.70;;;;;;5036180;28;20394;-93
2022/05/25 04:21:40;;;;;;;1.20;0.50;;;20.00;61.70;;;;;;5038344;28;20223;-91
2022/05/25 04:27:44;;;;;;;0.70;0.70;;;20.00;61.60;;;;;;5045254;28;20225;-93
2022/05/25 04:31:06;;;;;;;0.77;0.70;;;20.00;61.50;;;;;;5020442;28;20173;-93
2022/05/25 04:33:36;;;;;;;0.60;0.60;;;20.00;61.40;;;;;;5033069;28;20184;-93
2022/05/25 04:36:04;;;;;;;1.23;0.60;;;20.00;61.40;;;;;;5037003;28;20340;-92
2022/05/25 04:38:31;;;;;;;0.60;0.60;;;20.00;61.20;;;;;;5039666;28;20507;-92
2022/05/25 04:40:57;;;;;;;0.93;0.80;;;20.10;61.20;;;;;;5044336;28;20185;-93
2022/05/25 04:43:24;;;;;;;0.60;0.60;;;20.10;61.00;;;;;;5037761;28;20215;-93
2022/05/25 04:45:54;;;;;;;0.70;0.67;;;20.10;61.00;;;;;;5063538;28;20169;-93
2022/05/25 04:48:23;;;;;;;0.70;0.70;;;20.10;60.80;;;;;;5049358;28;20195;-92
2022/05/25 04:50:56;;;;;;;0.93;0.90;;;20.10;60.70;;;;;;5056228;28;20528;-93
2022/05/25 04:53:23;;;;;;;1.63;0.73;;;20.10;60.70;;;;;;5034391;28;20181;-93
2022/05/25 04:58:42;;;;;;;0.60;0.60;;;20.20;60.50;;;;;;5057696;28;20182;-92
2022/05/25 05:01:33;;;;;;;0.57;0.57;;;20.20;60.40;;;;;;5048600;28;20201;-93
2022/05/25 05:03:58;;;;;;;0.60;0.60;;;20.20;60.30;;;;;;5052099;28;20222;-93
2022/05/25 05:06:24;;;;;;;1.43;0.77;;;20.20;60.10;;;;;;5052075;28;20182;-93
2022/05/25 05:08:49;;;;;;;0.60;0.60;;;20.30;60.00;;;;;;5056892;28;20193;-93
2022/05/25 05:11:28;;;;;;;0.70;0.70;;;20.30;59.80;;;;;;5057052;28;20175;-93
2022/05/25 05:13:53;;;;;;;0.70;0.70;;;20.30;59.70;;;;;;5058679;28;20180;-93
2022/05/25 05:16:19;;;;;;;0.63;0.63;;;20.40;59.80;;;;;;5059240;28;20164;-93
2022/05/25 05:18:45;;;;;;;1.90;0.70;;;20.40;59.70;;;;;;5056321;28;20180;-93
2022/05/25 05:21:13;;;;;;;0.70;0.70;;;20.40;59.80;;;;;;5055835;28;20225;-93
2022/05/25 05:23:39;;;;;;;0.60;0.60;;;20.40;59.70;;;;;;5057224;28;20219;-93
2022/05/25 05:26:05;;;;;;;0.80;0.80;;;20.50;59.70;;;;;;5076286;28;20173;-93
2022/05/25 05:28:34;;;;;;;0.80;0.70;;;20.50;59.70;;;;;;5076339;28;20177;-92
2022/05/25 05:31:02;;;;;;;0.50;0.50;;;20.60;59.70;;;;;;5074564;28;20163;-93
2022/05/25 05:33:28;;;;;;;0.70;0.70;;;20.60;59.50;;;;;;5072171;28;20219;-93
2022/05/25 05:36:06;;;;;;;1.70;0.77;;;20.70;59.40;;;;;;5073519;28;20182;-93
2022/05/25 05:38:36;;;;;;;1.17;0.90;;;20.70;59.20;;;;;;5074441;28;20174;-93
2022/05/25 05:41:01;;;;;;;1.50;0.83;;;20.80;59.00;;;;;;5075422;28;20237;-93
2022/05/25 05:43:27;;;;;;;1.17;0.90;;;20.80;58.70;;;;;;5075792;28;20216;-93
2022/05/25 05:45:55;;;;;;;1.30;0.80;;;20.90;58.60;;;;;;5074959;28;20183;-93
2022/05/25 05:48:27;;;;;;;4.13;0.80;;;21.00;58.30;;;;;;5075225;28;20168;-93
2022/05/25 05:50:55;;;;;;;1.90;0.90;;;21.20;57.90;;;;;;5075002;28;20636;-93
2022/05/25 05:53:22;;;;;;;0.70;0.70;;;21.40;57.10;;;;;;5071615;28;20179;-93
2022/05/25 05:55:48;;;;;;;0.70;0.70;;;21.70;56.30;;;;;;5070516;28;20175;-93
2022/05/25 05:58:14;;;;;;;1.80;1.10;;;22.00;55.80;;;;;;5071129;28;20184;-92
2022/05/25 06:00:40;;;;;;;1.80;1.10;;;22.20;54.70;;;;;;5085932;28;20175;-93
2022/05/25 06:03:06;;;;;;;2.50;1.23;;;22.40;54.20;;;;;;5057599;28;20211;-92
2022/05/25 06:05:33;;;;;;;1.67;1.20;;;22.60;53.80;;;;;;5056385;28;20171;-92
2022/05/25 06:08:11;;;;;;;2.57;1.30;;;22.70;53.40;;;;;;5057506;28;20286;-92
2022/05/25 06:10:38;;;;;;;3.63;1.20;;;22.80;53.10;;;;;;5057242;28;20550;-92
2022/05/25 06:13:08;;;;;;;2.10;1.23;;;23.00;52.90;;;;;;5054146;28;20195;-92
2022/05/25 06:21:05;;;;;;;3.00;1.60;;;23.30;52.20;;;;;;5071779;28;20202;-92
2022/05/25 06:23:33;;;;;;;3.13;1.23;;;23.40;52.00;;;;;;5042516;28;20610;-92
2022/05/25 06:25:59;;;;;;;1.70;1.40;;;23.50;51.80;;;;;;5029537;28;20545;-93
2022/05/25 06:28:26;;;;;;;5.20;1.57;;;23.50;51.60;;;;;;5037191;28;20198;-92
2022/05/25 06:31:00;;;;;;;3.23;1.47;;;23.60;51.30;;;;;;5060634;28;20218;-94
2022/05/25 06:33:26;;;;;;;2.77;1.40;;;23.70;51.20;;;;;;5048567;28;20266;-95
2022/05/25 06:35:56;;;;;;;3.10;1.40;;;23.90;51.00;;;;;;5061288;28;20199;-95
2022/05/25 06:38:22;;;;;;;4.43;1.40;;;23.90;50.80;;;;;;5062272;28;20179;-95
2022/05/25 06:40:48;;;;;;;3.83;1.50;;;24.00;50.60;;;;;;5062872;28;20274;-95
2022/05/25 06:43:13;;;;;;;5.70;1.70;;;24.10;50.50;;;;;;5062921;28;20207;-93
2022/05/25 06:45:39;;;;;;;3.97;1.90;;;24.30;50.30;;;;;;5062156;28;20191;-93
2022/05/25 06:48:07;;;;;;;2.30;1.47;;;24.40;50.10;;;;;;5049954;28;20176;-93
2022/05/25 06:50:34;;;;;;;4.70;1.57;;;24.40;49.90;;;;;;5062473;28;20238;-93
2022/05/25 06:53:00;;;;;;;2.80;1.63;;;24.50;50.30;;;;;;5061533;28;20248;-93
2022/05/25 06:55:25;;;;;;;2.10;1.50;;;24.50;49.70;;;;;;5061464;28;20269;-93
2022/05/25 06:57:52;;;;;;;2.43;1.50;;;24.50;49.60;;;;;;5059539;28;20202;-93
2022/05/25 07:00:18;;;;;;;3.87;1.80;;;24.60;49.60;;;;;;5060181;28;20187;-93
2022/05/25 07:02:43;;;;;;;2.63;1.50;;;24.60;49.50;;;;;;5059605;28;20468;-93
2022/05/25 07:05:09;;;;;;;2.47;1.63;;;24.70;49.50;;;;;;5061075;28;20176;-93
2022/05/25 07:07:38;;;;;;;2.37;1.50;;;24.80;49.40;;;;;;5057321;28;20182;-92
2022/05/25 07:10:04;;;;;;;3.73;1.50;;;24.80;49.40;;;;;;5057860;28;20239;-93
2022/05/25 07:12:31;;;;;;;2.07;1.53;;;24.90;49.50;;;;;;5060013;28;20193;-93
2022/05/25 07:14:57;;;;;;;2.03;1.43;;;24.90;49.40;;;;;;5058458;28;20218;-93
2022/05/25 07:17:23;;;;;;;3.28;1.48;;;25.00;49.30;;;;;;5058437;28;20347;-93
2022/05/25 07:19:49;;;;;;;3.20;1.73;;;25.00;49.30;;;;;;5059273;28;20175;-93
2022/05/25 07:22:14;;;;;;;3.60;1.52;;;25.00;49.20;;;;;;5056974;28;20248;-94
2022/05/25 07:24:40;;;;;;;2.97;1.50;;;25.10;49.20;;;;;;5059314;28;20319;-94
2022/05/25 07:27:06;;;;;;;3.97;1.60;;;25.10;49.20;;;;;;5057733;28;20163;-93
2022/05/25 07:29:32;;;;;;;2.10;1.63;;;25.20;49.20;;;;;;5058119;28;20176;-93
2022/05/25 07:32:05;;;;;;;3.90;1.73;;;25.20;49.20;;;;;;5059560;28;20172;-95
2022/05/25 07:34:36;;;;;;;2.83;1.55;;;25.20;49.10;;;;;;5061831;28;20513;-93
2022/05/25 07:37:15;;;;;;;3.50;1.40;;;25.20;49.10;;;;;;5058614;28;20182;-93
2022/05/25 07:40:04;;;;;;;2.10;1.40;;;25.30;49.10;;;;;;5056138;28;20280;-93
2022/05/25 07:42:31;;;;;;;1.23;1.13;;;25.30;49.10;;;;;;5058339;28;20176;-94
2022/05/25 07:45:01;;;;;;;1.90;1.40;;;25.30;49.00;;;;;;5054632;28;20286;-93
2022/05/25 07:47:29;;;;;;;2.40;1.42;;;25.30;49.40;;;;;;5052486;28;20300;-93
2022/05/25 07:49:54;;;;;;;3.20;1.55;;;25.30;49.00;;;;;;5060018;28;20229;-93
2022/05/25 07:52:25;;;;;;;2.22;1.45;;;25.40;49.00;;;;;;5060532;28;20164;-93
2022/05/25 07:54:53;;;;;;;2.03;1.40;;;25.40;49.00;;;;;;5053220;28;20171;-93
2022/05/25 07:57:19;;;;;;;1.98;1.50;;;25.40;49.00;;;;;;5053964;28;20171;-93
2022/05/25 07:59:44;;;;;;;3.05;1.27;;;25.40;49.00;;;;;;5051391;28;20462;-93
2022/05/25 08:08:04;;;;;;;1.30;1.10;;;25.50;48.90;;;;;;5077149;28;20167;-93
2022/05/25 08:10:31;;;;;;;1.63;1.20;;;25.40;48.80;;;;;;5059377;28;20168;-93
2022/05/25 08:12:58;;;;;;;2.00;1.42;;;25.50;48.90;;;;;;5056532;28;20175;-93
2022/05/25 08:15:26;;;;;;;2.10;1.20;;;25.50;48.90;;;;;;5059404;28;20172;-93
2022/05/25 08:17:52;;;;;;;1.85;1.42;;;25.50;48.90;;;;;;5067373;28;20262;-94
2022/05/25 08:20:19;;;;;;;1.73;1.30;;;25.50;48.90;;;;;;5067449;28;20179;-94
2022/05/25 08:22:45;;;;;;;2.40;1.42;;;25.50;48.90;;;;;;5070251;28;20269;-93
2022/05/25 08:25:13;;;;;;;1.70;1.13;;;25.50;48.80;;;;;;5067669;28;20168;-94
2022/05/25 08:27:39;;;;;;;1.88;1.30;;;25.50;48.90;;;;;;5061690;28;20182;-94
2022/05/25 08:30:25;;;;;;;1.50;1.38;;;25.50;48.90;;;;;;5067541;28;20274;-94
2022/05/25 08:32:50;;;;;;;1.95;1.30;;;25.50;48.90;;;;;;5068901;28;20832;-95
2022/05/25 08:35:17;;;;;;;1.50;1.30;;;25.60;48.90;;;;;;5067943;28;20232;-94
2022/05/25 08:37:42;;;;;;;2.67;1.30;;;25.50;48.90;;;;;;5066907;28;20424;-93
2022/05/25 08:40:11;;;;;;;1.92;1.30;;;25.60;48.90;;;;;;5065793;28;20201;-94
2022/05/25 08:43:24;;;;;;;1.30;1.15;;;25.50;48.90;;;;;;5064960;28;20164;-94
2022/05/25 08:46:00;;;;;;;1.27;1.15;;;25.50;48.90;;;;;;5044369;28;20582;-94
2022/05/25 08:48:28;;;;;;;1.52;1.20;;;25.40;48.90;;;;;;5069726;28;20171;-93
2022/05/25 08:51:09;;;;;;;1.98;1.40;;;25.40;49.00;;;;;;5064195;28;20172;-94
2022/05/25 08:53:35;;;;;;;1.52;1.20;;;25.50;49.00;;;;;;5068226;28;20182;-94
2022/05/25 08:56:06;;;;;;;2.10;1.20;;;25.50;48.90;;;;;;5064959;28;20167;-93
2022/05/25 08:58:38;;;;;;;1.50;1.20;;;25.50;48.90;;;;;;5081438;28;20183;-94
2022/05/25 09:01:06;;;;;;;2.13;1.30;;;25.50;49.00;;;;;;5065238;28;20199;-94
2022/05/25 09:04:21;;;;;;;0.98;0.98;;;25.50;48.90;;;;;;5057724;28;20238;-94
2022/05/25 09:06:58;;;;;;;2.55;1.20;;;25.50;48.90;;;;;;5045458;28;20340;-93
2022/05/25 09:09:32;;;;;;;1.67;1.38;;;25.60;48.90;;;;;;5061831;28;20262;-94
2022/05/25 09:12:43;;;;;;;1.92;1.38;;;25.60;48.90;;;;;;5062913;28;20172;-94
2022/05/25 09:15:30;;;;;;;2.15;1.17;;;25.60;49.30;;;;;;5057526;28;20561;-94
2022/05/25 09:18:07;;;;;;;1.65;1.30;;;25.60;48.90;;;;;;5066411;28;20167;-94
2022/05/25 09:20:42;;;;;;;1.63;1.40;;;25.60;48.90;;;;;;5063282;28;20206;-93
2022/05/25 09:23:10;;;;;;;2.20;1.30;;;25.60;49.00;;;;;;5056128;28;20253;-94
2022/05/25 09:25:37;;;;;;;1.33;1.15;;;25.60;49.00;;;;;;5053832;28;20203;-92
2022/05/25 09:28:07;;;;;;;2.80;1.15;;;25.60;49.00;;;;;;5053671;28;20205;-92
2022/05/25 09:30:37;;;;;;;3.97;1.20;;;25.60;49.00;;;;;;5054952;28;20263;-93
2022/05/25 09:33:23;;;;;;;2.22;1.17;;;25.60;49.10;;;;;;5054910;28;20207;-92
2022/05/25 09:35:55;;;;;;;1.88;1.20;;;25.60;49.10;;;;;;5057024;28;20187;-92
2022/05/25 09:38:45;;;;;;;3.88;1.33;;;25.50;49.10;;;;;;5055711;28;20228;-92
2022/05/25 09:41:13;;;;;;;1.85;1.15;;;25.50;49.20;;;;;;5056239;28;20495;-93
2022/05/25 09:43:41;;;;;;;1.70;1.15;;;25.50;49.30;;;;;;5055563;28;20243;-92
2022/05/25 09:46:27;;;;;;;1.35;1.25;;;25.40;49.20;;;;;;5055488;28;20175;-92
2022/05/25 09:48:58;;;;;;;2.63;1.30;;;25.40;49.30;;;;;;5053069;28;20168;-92
2022/05/25 09:51:40;;;;;;;2.38;1.40;;;25.40;49.40;;;;;;5054363;28;20247;-92
2022/05/25 09:54:28;;;;;;;1.40;1.10;;;25.30;49.40;;;;;;5054466;28;20194;-93
2022/05/25 09:57:04;;;;;;;1.88;1.23;;;25.40;49.40;;;;;;5055514;28;20179;-92
2022/05/25 09:59:35;;;;;;;2.00;1.30;;;25.40;49.50;;;;;;5050007;28;20217;-92
2022/05/25 10:02:02;;;;;;;2.55;1.30;;;25.40;49.40;;;;;;5052772;28;20180;-94
2022/05/25 10:04:51;;;;;;;2.25;1.27;;;25.40;49.40;;;;;;5050236;28;20283;-92
2022/05/25 10:07:36;;;;;;;2.65;1.02;;;25.50;49.40;;;;;;5050962;28;20172;-92
2022/05/25 10:10:09;;;;;;;3.30;1.30;;;25.50;49.40;;;;;;5050397;28;20370;-92
2022/05/25 10:12:41;;;;;;;2.60;1.40;;;25.50;49.50;;;;;;5053108;28;20451;-93
2022/05/25 10:15:26;;;;;;;1.60;1.30;;;25.40;49.50;;;;;;5051814;28;20167;-93
2022/05/25 10:17:53;;;;;;;1.63;1.30;;;25.40;49.50;;;;;;5049975;28;20435;-92
2022/05/25 10:20:24;;;;;;;1.70;1.10;;;25.40;49.60;;;;;;5050492;28;20163;-93
2022/05/25 10:23:21;;;;;;;1.98;1.00;;;25.40;49.60;;;;;;5052901;28;20199;-93
2022/05/25 10:25:50;;;;;;;3.25;1.30;;;25.40;49.70;;;;;;5030337;28;20456;-93
2022/05/25 10:28:35;;;;;;;1.65;1.10;;;25.30;49.70;;;;;;5052857;28;20207;-93
2022/05/25 10:37:16;;;;;;;2.13;0.87;;;25.30;49.80;;;;;;5065498;28;20298;-93
2022/05/25 10:39:59;;;;;;;1.60;0.90;;;25.30;49.80;;;;;;5048339;28;20343;-92
2022/05/25 10:42:31;;;;;;;1.90;1.00;;;25.20;49.80;;;;;;5049636;28;20183;-92
2022/05/25 10:45:15;;;;;;;1.47;1.00;;;25.20;49.80;;;;;;5049733;28;20188;-93
2022/05/25 10:47:44;;;;;;;1.17;0.90;;;25.20;49.90;;;;;;5055297;28;20182;-93
2022/05/25 10:50:32;;;;;;;1.43;0.97;;;25.20;50.00;;;;;;5056565;28;20176;-93
2022/05/25 10:53:22;;;;;;;1.50;1.00;;;25.20;50.10;;;;;;5054430;28;20204;-93
2022/05/25 10:55:48;;;;;;;1.37;0.97;;;25.10;50.10;;;;;;5050554;28;20274;-92
2022/05/25 10:58:23;;;;;;;1.00;0.90;;;25.10;50.10;;;;;;5054199;28;20283;-92
2022/05/25 11:01:10;;;;;;;0.80;0.80;;;25.10;50.20;;;;;;5055574;28;20187;-93
2022/05/25 11:03:35;;;;;;;1.23;1.00;;;25.10;50.30;;;;;;5051655;28;20207;-92
2022/05/25 11:06:24;;;;;;;1.73;1.10;;;25.10;50.30;;;;;;5050282;28;20460;-92
2022/05/25 11:08:53;;;;;;;2.37;1.07;;;25.10;50.30;;;;;;5051773;28;20187;-93
2022/05/25 11:11:29;;;;;;;1.90;1.00;;;25.10;50.30;;;;;;5053782;28;20168;-92
2022/05/25 11:14:19;;;;;;;1.00;0.90;;;25.10;50.40;;;;;;5051685;28;20187;-93
2022/05/25 11:16:55;;;;;;;1.73;1.00;;;25.10;50.40;;;;;;5052836;28;20361;-92
2022/05/25 11:19:50;;;;;;;1.00;0.90;;;25.10;50.50;;;;;;5053924;28;20463;-92
2022/05/25 11:22:23;;;;;;;1.77;1.00;;;25.10;50.50;;;;;;5049796;28;20351;-92
2022/05/25 11:24:49;;;;;;;0.90;0.80;;;25.00;50.50;;;;;;5051679;28;20297;-92
2022/05/25 11:27:33;;;;;;;1.63;1.00;;;25.10;50.60;;;;;;5052190;28;20172;-92
2022/05/25 11:30:36;;;;;;;1.43;0.90;;;25.00;50.60;;;;;;5054694;28;20285;-92
2022/05/25 11:33:24;;;;;;;0.80;0.80;;;25.00;50.70;;;;;;5051009;28;20182;-92
2022/05/25 11:36:15;;;;;;;1.50;0.70;;;25.00;50.70;;;;;;5051213;28;20183;-92
2022/05/25 11:39:09;;;;;;;1.30;0.87;;;25.00;50.80;;;;;;5052958;28;20210;-93
2022/05/25 11:41:40;;;;;;;0.70;0.70;;;24.90;50.80;;;;;;5051267;28;20247;-92
2022/05/25 11:44:15;;;;;;;1.73;1.00;;;24.90;50.90;;;;;;5056120;28;20239;-92
2022/05/25 11:47:21;;;;;;;0.90;0.87;;;24.90;50.90;;;;;;5055825;28;20368;-93
2022/05/25 11:49:50;;;;;;;1.10;0.90;;;24.90;51.00;;;;;;5019805;28;20251;-92
2022/05/25 11:52:38;;;;;;;1.50;1.10;;;24.90;51.00;;;;;;5056711;28;20175;-93
2022/05/25 11:55:39;;;;;;;1.07;0.70;;;24.90;51.00;;;;;;5056979;28;20183;-92
2022/05/25 11:58:23;;;;;;;1.00;0.70;;;24.90;51.10;;;;;;5044188;28;20175;-92
2022/05/25 12:01:01;;;;;;;1.00;0.90;;;24.90;51.10;;;;;;5040105;28;20250;-93
2022/05/25 12:03:45;;;;;;;0.77;0.77;;;24.90;51.20;;;;;;5044458;28;20199;-93
2022/05/25 12:06:19;;;;;;;1.07;0.90;;;24.90;51.20;;;;;;5031674;28;20180;-93
2022/05/25 12:09:22;;;;;;;0.80;0.80;;;24.80;51.20;;;;;;5037739;28;20247;-92
2022/05/25 12:11:56;;;;;;;0.73;0.70;;;24.80;51.30;;;;;;5037603;28;20168;-92
2022/05/25 12:14:45;;;;;;;0.77;0.77;;;24.80;51.40;;;;;;5036077;28;20183;-92
2022/05/25 12:17:43;;;;;;;0.93;0.70;;;24.80;51.40;;;;;;5042628;28;20596;-91
2022/05/25 12:20:11;;;;;;;1.13;1.00;;;24.80;51.40;;;;;;5034067;28;20270;-92
2022/05/25 12:22:41;;;;;;;0.80;0.70;;;24.80;51.40;;;;;;5030486;28;20199;-92
2022/05/25 12:25:15;;;;;;;1.20;0.80;;;24.80;51.50;;;;;;5032211;28;20203;-92
2022/05/25 12:27:54;;;;;;;1.50;0.80;;;24.80;51.50;;;;;;5032677;28;20172;-92
2022/05/25 12:30:28;;;;;;;0.60;0.60;;;24.80;51.50;;;;;;5033419;28;20168;-93
2022/05/25 12:32:54;;;;;;;0.83;0.70;;;24.80;51.60;;;;;;5036679;28;20175;-92
2022/05/25 12:35:22;;;;;;;1.00;0.80;;;24.70;51.60;;;;;;5049914;28;20184;-93
2022/05/25 12:37:53;;;;;;;0.70;0.70;;;24.70;51.70;;;;;;5035554;28;20183;-92
2022/05/25 12:40:31;;;;;;;0.70;0.70;;;24.70;51.70;;;;;;5032592;28;20184;-92
2022/05/25 12:42:57;;;;;;;0.73;0.60;;;24.70;51.70;;;;;;5031477;28;20206;-92
2022/05/25 12:48:31;;;;;;;0.70;0.70;;;24.70;51.70;;;;;;5075620;28;20255;-92
2022/05/25 12:51:36;;;;;;;0.87;0.77;;;24.70;51.70;;;;;;5065580;28;20178;-92
2022/05/25 12:54:06;;;;;;;1.03;0.80;;;24.70;51.80;;;;;;5069325;28;20171;-92
2022/05/25 12:56:33;;;;;;;0.80;0.70;;;24.60;51.80;;;;;;5066414;28;20182;-93
2022/05/25 12:59:07;;;;;;;0.60;0.60;;;24.60;51.80;;;;;;5059481;28;20175;-93
2022/05/25 13:01:36;;;;;;;0.70;0.70;;;24.60;51.90;;;;;;5048940;28;20158;-93
2022/05/25 13:04:39;;;;;;;0.97;0.80;;;24.60;51.90;;;;;;5066269;28;20213;-93
2022/05/25 13:07:23;;;;;;;0.67;0.67;;;24.60;51.80;;;;;;5063236;28;20166;-93
2022/05/25 13:09:49;;;;;;;0.57;0.53;;;24.60;51.70;;;;;;5060326;28;20265;-92
2022/05/25 13:12:40;;;;;;;0.90;0.70;;;24.60;51.80;;;;;;5067189;28;20175;-92
2022/05/25 13:15:15;;;;;;;0.80;0.80;;;24.60;51.70;;;;;;5056645;28;20179;-92
2022/05/25 13:17:50;;;;;;;0.80;0.80;;;24.60;51.70;;;;;;5024402;28;20293;-92
2022/05/25 13:20:47;;;;;;;0.80;0.70;;;24.60;51.70;;;;;;5026469;28;20467;-92
2022/05/25 13:23:51;;;;;;;0.60;0.60;;;24.50;51.60;;;;;;5026452;28;20213;-92
2022/05/25 13:26:37;;;;;;;1.07;0.80;;;24.50;51.50;;;;;;5035435;28;20173;-91
2022/05/25 13:29:12;;;;;;;1.00;0.60;;;24.50;51.50;;;;;;5053598;28;20164;-92
2022/05/25 13:31:48;;;;;;;2.20;0.73;;;24.50;51.60;;;;;;5055205;28;20323;-92
2022/05/25 13:34:17;;;;;;;0.80;0.67;;;24.50;51.50;;;;;;5053977;28;20171;-93
2022/05/25 13:36:58;;;;;;;1.07;0.77;;;24.50;51.60;;;;;;5056593;28;20175;-92
2022/05/25 13:39:26;;;;;;;1.30;0.80;;;24.50;51.60;;;;;;5053414;28;20175;-91
2022/05/25 13:42:18;;;;;;;0.73;0.70;;;24.50;51.70;;;;;;5048732;28;20216;-92
2022/05/25 13:44:48;;;;;;;3.50;1.07;;;24.50;52.20;;;;;;5056842;28;20200;-93
2022/05/25 13:47:23;;;;;;;3.83;1.10;;;24.50;51.80;;;;;;5054177;28;20210;-93
2022/05/25 13:50:01;;;;;;;1.53;0.73;;;24.50;51.80;;;;;;5056589;28;20569;-93
2022/05/25 13:52:30;;;;;;;1.93;1.00;;;24.50;51.80;;;;;;5057182;28;20178;-92
2022/05/25 13:55:07;;;;;;;2.20;0.90;;;24.50;51.70;;;;;;5040816;28;20188;-93